createdAt,value
2022-10-17T07:06:04.433Z,69.90
2022-10-17T07:08:31.913Z,68.97
2022-10-17T07:11:13.409Z,71.35
2022-10-17T07:13:40.420Z,70.38
2022-10-17T07:16:08.073Z,69.22
2022-10-17T07:18:36.309Z,70.15
2022-10-17T07:21:04.020Z,67.25
2022-10-17T07:23:31.312Z,71.18
2022-10-17T07:26:02.591Z,69.55
2022-10-17T07:28:30.070Z,71.70
2022-10-17T07:31:10.522Z,71.95
2022-10-17T07:33:38.107Z,73.95
2022-10-17T07:36:05.802Z,71.63
2022-10-17T07:38:35.125Z,72.18
2022-10-17T07:41:04.093Z,69.13
2022-10-17T07:43:34.058Z,71.28
2022-10-17T07:46:02.922Z,70.45
2022-10-17T07:48:30.701Z,67.35
2022-10-17T07:50:57.651Z,70.90
2022-10-17T07:53:24.428Z,70.63
2022-10-17T07:55:51.594Z,70.97
2022-10-17T07:58:18.736Z,70.32
2022-10-17T08:00:48.436Z,71.32
2022-10-17T08:03:15.469Z,71.13
2022-10-17T08:05:42.548Z,69.10
2022-10-17T08:08:09.377Z,64.60
2022-10-17T08:10:37.131Z,64.63
2022-10-17T08:13:03.979Z,67.50
2022-10-17T08:15:32.148Z,68.13
2022-10-17T08:17:59.525Z,66.47
2022-10-17T08:20:26.630Z,66.78
2022-10-17T08:22:56.496Z,65.38
2022-10-17T08:25:23.943Z,66.28
2022-10-17T08:27:53.714Z,63.85
2022-10-17T08:30:20.645Z,64.05
2022-10-17T08:32:47.457Z,67.97
2022-10-17T08:35:14.855Z,68.00
2022-10-17T08:37:41.978Z,70.45
2022-10-17T08:40:18.594Z,69.97
2022-10-17T08:43:04.006Z,66.95
2022-10-17T08:45:36.454Z,72.47
2022-10-17T08:53:26.141Z,68.28
2022-10-17T08:55:55.048Z,72.13
2022-10-17T08:58:26.020Z,72.35
2022-10-17T09:00:55.813Z,72.65
2022-10-17T09:03:29.927Z,72.30
2022-10-17T09:06:08.748Z,70.65
2022-10-17T09:08:41.955Z,67.88
2022-10-17T09:11:11.535Z,71.15
2022-10-17T09:13:59.128Z,66.50
2022-10-17T09:16:51.448Z,63.28
2022-10-17T09:19:34.385Z,69.13
2022-10-17T09:22:06.386Z,65.20
2022-10-17T09:24:47.900Z,71.65
2022-10-17T09:27:28.615Z,65.20
2022-10-17T09:30:40.121Z,65.65
2022-10-17T09:33:34.275Z,66.57
2022-10-17T09:36:06.176Z,66.05
2022-10-17T09:38:52.864Z,71.00
2022-10-17T09:41:46.386Z,76.43
2022-10-17T09:44:13.732Z,69.75
2022-10-17T09:46:40.842Z,71.60
2022-10-17T09:49:19.752Z,72.10
2022-10-17T09:51:47.911Z,73.00
2022-10-17T09:54:29.636Z,71.47
2022-10-17T09:59:37.614Z,70.35
2022-10-17T10:02:24.544Z,73.07
2022-10-17T10:05:06.388Z,74.28
2022-10-17T10:07:39.731Z,72.07
2022-10-17T10:10:24.393Z,67.72
2022-10-17T10:13:14.040Z,72.07
2022-10-17T10:15:45.494Z,72.60
2022-10-17T10:18:32.531Z,73.30
2022-10-17T10:21:05.497Z,72.28
2022-10-17T10:23:32.612Z,76.18
2022-10-17T10:26:03.172Z,81.25
2022-10-17T10:28:33.953Z,78.35
2022-10-17T10:31:05.560Z,78.15
2022-10-17T10:33:39.263Z,80.43
2022-10-17T10:36:09.167Z,77.70
2022-10-17T10:38:39.973Z,76.30
2022-10-17T10:41:11.067Z,75.07
2022-10-17T10:43:39.930Z,77.32
2022-10-17T10:46:21.162Z,74.65
2022-10-17T10:48:54.421Z,73.97
2022-10-17T10:51:27.172Z,66.82
2022-10-17T10:54:16.107Z,71.60
2022-10-17T10:56:49.850Z,73.70
2022-10-17T10:59:43.074Z,72.72
2022-10-17T11:02:27.761Z,71.00
2022-10-17T11:05:12.612Z,69.90
2022-10-17T11:07:42.478Z,71.05
2022-10-17T11:10:15.546Z,70.60
2022-10-17T11:12:49.454Z,68.13
2022-10-17T11:15:31.676Z,71.10
2022-10-17T11:18:03.004Z,69.93
2022-10-17T11:20:46.174Z,70.18
2022-10-17T11:23:36.096Z,72.40
2022-10-17T11:26:08.608Z,70.68
2022-10-17T11:31:23.060Z,69.60
2022-10-17T11:34:19.630Z,64.60
2022-10-17T11:36:50.766Z,66.57
2022-10-17T11:39:23.203Z,67.13
2022-10-17T11:44:42.519Z,64.57
2022-10-17T11:47:38.446Z,70.00
2022-10-17T11:53:17.102Z,70.43
2022-10-17T11:55:45.679Z,67.50
2022-10-17T11:58:33.191Z,69.18
2022-10-17T12:01:44.161Z,69.20
2022-10-17T12:04:23.194Z,65.28
2022-10-17T12:07:18.006Z,64.22
2022-10-17T12:10:25.007Z,67.10
2022-10-17T12:12:54.662Z,60.95
2022-10-17T12:15:24.420Z,61.63
2022-10-17T12:18:03.998Z,62.85
2022-10-17T12:20:35.980Z,62.95
2022-10-17T12:23:05.455Z,62.15
2022-10-17T12:25:35.450Z,59.38
2022-10-17T12:28:06.295Z,60.85
2022-10-17T12:30:34.170Z,59.55
2022-10-17T12:33:22.664Z,56.80
2022-10-17T12:35:51.789Z,57.55
2022-10-17T12:38:22.383Z,60.53
2022-10-17T12:40:57.272Z,61.10
2022-10-17T12:43:38.945Z,59.20
2022-10-17T12:46:09.003Z,59.78
2022-10-17T12:48:38.802Z,56.90
2022-10-17T12:51:40.522Z,60.25
2022-10-17T12:54:15.023Z,60.88
2022-10-17T12:56:45.658Z,62.03
2022-10-17T12:59:26.352Z,60.42
2022-10-17T13:01:59.483Z,59.90
2022-10-17T13:04:28.529Z,64.70
2022-10-17T13:06:59.147Z,58.05
2022-10-17T13:09:44.219Z,58.30
2022-10-17T13:12:15.142Z,57.90
2022-10-17T13:14:43.588Z,60.65
2022-10-17T13:17:25.076Z,61.58
2022-10-17T13:19:52.265Z,60.60
2022-10-17T13:22:26.198Z,64.22
2022-10-17T13:25:06.443Z,63.13
2022-10-17T13:27:37.612Z,59.85
2022-10-17T13:30:22.017Z,62.40
2022-10-17T13:32:48.851Z,61.70
2022-10-17T13:35:42.049Z,59.42
2022-10-17T13:38:13.749Z,57.58
2022-10-17T13:40:50.707Z,59.42
2022-10-17T13:43:20.698Z,56.10
2022-10-17T13:45:51.492Z,56.47
2022-10-17T13:48:24.739Z,55.30
2022-10-17T13:50:56.371Z,56.75
2022-10-17T13:53:26.493Z,54.50
2022-10-17T13:56:26.514Z,51.88
2022-10-17T13:58:49.140Z,54.00
2022-10-17T14:01:16.820Z,54.30
2022-10-17T14:03:54.728Z,54.28
2022-10-17T14:06:30.696Z,57.85
2022-10-17T14:09:03.545Z,57.95
2022-10-17T14:11:43.631Z,54.67
2022-10-17T14:14:22.736Z,53.65
2022-10-17T14:16:49.811Z,54.53
2022-10-17T14:19:28.503Z,53.47
2022-10-17T14:22:15.560Z,53.97
2022-10-17T14:24:43.664Z,53.30
2022-10-17T14:28:02.345Z,53.67
2022-10-17T14:33:28.448Z,56.17
2022-10-17T14:35:57.825Z,55.72
2022-10-17T14:38:26.085Z,56.15
2022-10-17T14:41:23.636Z,58.95
2022-10-17T14:43:57.120Z,56.40
2022-10-17T14:46:25.158Z,56.58
2022-10-17T14:49:04.653Z,57.40
2022-10-17T14:51:40.208Z,57.60
2022-10-17T14:54:23.063Z,59.83
2022-10-17T14:59:51.621Z,55.72
2022-10-17T15:02:11.999Z,54.15
2022-10-17T15:04:38.758Z,54.53
2022-10-17T15:07:05.567Z,54.10
2022-10-17T15:09:32.477Z,53.85
2022-10-17T15:12:04.238Z,53.47
2022-10-17T15:14:31.060Z,56.60
2022-10-17T15:16:57.928Z,55.17
2022-10-17T15:19:24.682Z,55.08
2022-10-17T15:21:51.502Z,53.03
2022-10-17T15:24:18.294Z,54.33
2022-10-17T15:26:45.145Z,55.50
2022-10-17T15:29:16.170Z,52.67
2022-10-17T15:31:43.189Z,53.05
2022-10-17T15:34:09.983Z,53.72
2022-10-17T15:36:40.811Z,54.72
2022-10-17T15:39:09.295Z,54.88
2022-10-17T15:41:36.873Z,52.85
2022-10-17T15:44:03.715Z,53.90
2022-10-17T15:46:35.612Z,52.95
2022-10-17T15:49:09.834Z,51.97
2022-10-17T15:51:36.981Z,52.15
2022-10-17T15:54:05.194Z,52.13
2022-10-17T15:56:36.344Z,51.65
2022-10-17T15:59:12.853Z,53.85
2022-10-17T16:01:40.502Z,52.05
2022-10-17T16:04:12.810Z,51.72
2022-10-17T16:06:39.715Z,54.85
2022-10-17T16:09:06.480Z,51.90
2022-10-17T16:11:41.114Z,52.42
2022-10-17T16:14:12.147Z,48.28
2022-10-17T16:16:39.649Z,50.88
2022-10-17T16:19:06.570Z,49.40
2022-10-17T16:21:37.273Z,49.30
2022-10-17T16:24:04.937Z,47.72
2022-10-17T16:26:32.690Z,47.63
2022-10-17T16:29:02.883Z,47.67
2022-10-17T16:31:35.740Z,46.35
2022-10-17T16:34:04.011Z,46.83
2022-10-17T16:36:31.018Z,45.97
2022-10-17T16:38:58.158Z,47.55
2022-10-17T16:41:29.534Z,46.88
2022-10-17T16:43:58.830Z,46.83
2022-10-17T16:46:28.063Z,46.33
2022-10-17T16:48:55.537Z,46.95
2022-10-17T16:51:22.774Z,48.05
2022-10-17T16:53:52.818Z,48.72
2022-10-17T16:56:22.230Z,47.47
2022-10-17T16:58:49.924Z,48.08
2022-10-17T17:01:19.545Z,46.22
2022-10-17T17:03:47.757Z,49.67
2022-10-17T17:06:21.138Z,47.33
2022-10-17T17:08:48.432Z,47.45
2022-10-17T17:11:17.464Z,48.67
2022-10-17T17:13:44.432Z,47.13
2022-10-17T17:16:17.231Z,49.33
2022-10-17T17:18:46.027Z,46.97
2022-10-17T17:21:13.953Z,47.22
2022-10-17T17:23:42.450Z,50.30
2022-10-17T17:26:15.746Z,45.97
2022-10-17T17:28:43.831Z,48.80
2022-10-17T17:31:13.276Z,48.60
2022-10-17T17:33:41.646Z,47.00
2022-10-17T17:36:12.553Z,45.55
2022-10-17T17:38:42.292Z,45.78
2022-10-17T17:41:12.652Z,47.83
2022-10-17T17:43:42.880Z,50.10
2022-10-17T17:46:10.130Z,51.28
2022-10-17T17:48:40.130Z,49.22
2022-10-17T17:51:08.996Z,49.42
2022-10-17T17:53:36.505Z,53.78
2022-10-17T17:56:09.103Z,51.03
2022-10-17T17:58:36.612Z,52.22
2022-10-17T18:01:13.197Z,51.55
2022-10-17T18:03:41.766Z,51.08
2022-10-17T18:06:09.121Z,47.50
2022-10-17T18:08:36.497Z,47.20
2022-10-17T18:11:04.046Z,55.50
2022-10-17T18:13:31.032Z,47.72
2022-10-17T18:16:00.208Z,48.47
2022-10-17T18:18:29.276Z,48.30
2022-10-17T18:20:56.665Z,50.90
2022-10-17T18:23:23.644Z,51.42
2022-10-17T18:26:09.006Z,50.92
2022-10-17T18:28:37.336Z,53.65
2022-10-17T18:31:09.336Z,53.33
2022-10-17T18:33:36.575Z,55.50
2022-10-17T18:36:11.791Z,51.67
2022-10-17T18:38:39.073Z,55.65
2022-10-17T18:41:12.063Z,56.42
2022-10-17T18:43:40.957Z,53.72
2022-10-17T18:46:13.895Z,56.10
2022-10-17T18:48:44.441Z,54.22
2022-10-17T18:51:12.670Z,52.67
2022-10-17T18:53:41.105Z,63.50
2022-10-17T18:56:08.639Z,55.03
2022-10-17T18:58:36.711Z,52.15
2022-10-17T19:01:05.864Z,47.03
2022-10-17T19:03:32.925Z,49.92
2022-10-17T19:06:04.258Z,50.55
2022-10-17T19:08:31.033Z,51.40
2022-10-17T19:10:57.841Z,50.72
2022-10-17T19:13:24.711Z,51.95
2022-10-17T19:15:51.513Z,51.95
2022-10-17T19:18:18.324Z,53.53
2022-10-17T19:20:46.081Z,57.30
2022-10-17T19:23:12.917Z,48.65
2022-10-17T19:25:41.198Z,51.58
2022-10-17T19:28:08.095Z,48.47
2022-10-17T19:30:35.559Z,51.85
2022-10-17T19:33:02.397Z,56.67
2022-10-17T19:35:29.183Z,47.20
2022-10-17T19:37:56.225Z,49.10
2022-10-17T19:40:23.176Z,49.70
2022-10-17T19:42:50.148Z,51.78
2022-10-17T19:45:17.274Z,52.13
2022-10-17T19:47:44.503Z,52.80
2022-10-17T19:50:11.835Z,55.50
2022-10-17T19:52:38.735Z,56.13
2022-10-17T19:55:06.264Z,53.63
2022-10-17T19:57:33.764Z,56.22
2022-10-17T20:00:02.211Z,55.13
2022-10-17T20:02:38.132Z,52.95
2022-10-17T20:05:21.609Z,56.85
2022-10-17T20:07:50.577Z,55.75
2022-10-17T20:10:18.917Z,55.72
2022-10-17T20:12:45.767Z,48.55
2022-10-17T20:15:15.619Z,50.28
2022-10-17T20:17:42.453Z,53.38
2022-10-17T20:20:09.927Z,50.15
2022-10-17T20:22:36.815Z,53.45
2022-10-17T20:25:04.128Z,51.00
2022-10-17T20:27:30.941Z,48.63
2022-10-17T20:30:01.709Z,51.40
2022-10-17T20:32:31.304Z,49.17
2022-10-17T20:34:58.512Z,52.35
2022-10-17T20:37:25.342Z,52.00
2022-10-17T20:40:10.711Z,51.83
2022-10-17T20:42:39.219Z,52.65
2022-10-17T20:45:06.792Z,43.67
2022-10-17T20:47:45.932Z,45.85
2022-10-17T20:50:14.099Z,45.95
2022-10-17T20:52:40.984Z,45.13
